sensor_id;sensor_type;location;lat;lon;timestamp;pressure;altitude;pressure_sealevel;temperature;humidity
45937;BME280;31649;46.510;6.498;2023-04-05T05:59:43;95875.06;;;1.57;51.13
45937;BME280;31649;46.510;6.498;2023-04-05T06:02:09;95867.28;;;1.73;50.72
45937;BME280;31649;46.510;6.498;2023-04-05T06:04:34;95868.75;;;1.78;50.09
45937;BME280;31649;46.510;6.498;2023-04-05T06:07:00;95875.72;;;1.46;50.77
45937;BME280;31649;46.510;6.498;2023-04-05T06:09:26;95874.50;;;0.77;52.48
45937;BME280;31649;46.510;6.498;2023-04-05T06:11:53;95870.47;;;1.19;52.27
45937;BME280;31649;46.510;6.498;2023-04-05T06:14:19;95876.72;;;1.58;51.48
45937;BME280;31649;46.510;6.498;2023-04-05T06:16:44;95880.19;;;1.72;51.24
45937;BME280;31649;46.510;6.498;2023-04-05T06:19:10;95868.00;;;1.90;51.18
45937;BME280;31649;46.510;6.498;2023-04-05T06:21:36;95874.22;;;2.01;51.21
45937;BME280;31649;46.510;6.498;2023-04-05T06:24:01;95875.19;;;2.13;51.31
45937;BME280;31649;46.510;6.498;2023-04-05T06:26:27;95878.59;;;2.13;51.26
45937;BME280;31649;46.510;6.498;2023-04-05T06:28:55;95875.78;;;2.31;51.35
45937;BME280;31649;46.510;6.498;2023-04-05T06:31:26;95878.53;;;2.42;51.30
45937;BME280;31649;46.510;6.498;2023-04-05T06:33:52;95872.06;;;2.50;51.35
45937;BME280;31649;46.510;6.498;2023-04-05T06:36:17;95878.81;;;2.65;51.02
45937;BME280;31649;46.510;6.498;2023-04-05T06:38:43;95877.09;;;2.79;50.48
45937;BME280;31649;46.510;6.498;2023-04-05T06:41:08;95881.09;;;2.83;50.57
45937;BME280;31649;46.510;6.498;2023-04-05T06:43:34;95871.78;;;2.95;50.64
45937;BME280;31649;46.510;6.498;2023-04-05T06:45:59;95882.47;;;3.02;50.65
45937;BME280;31649;46.510;6.498;2023-04-05T06:48:26;95871.19;;;3.05;50.39
45937;BME280;31649;46.510;6.498;2023-04-05T06:51:01;95877.47;;;3.13;50.52
45937;BME280;31649;46.510;6.498;2023-04-05T06:53:27;95874.28;;;3.23;50.36
45937;BME280;31649;46.510;6.498;2023-04-05T06:55:59;95878.91;;;3.18;50.39
45937;BME280;31649;46.510;6.498;2023-04-05T06:58:25;95867.59;;;3.20;50.82
45937;BME280;31649;46.510;6.498;2023-04-05T07:00:52;95871.53;;;3.26;50.70
45937;BME280;31649;46.510;6.498;2023-04-05T07:03:18;95870.91;;;3.35;50.55
45937;BME280;31649;46.510;6.498;2023-04-05T07:06:09;95878.22;;;3.55;50.43
45937;BME280;31649;46.510;6.498;2023-04-05T07:08:36;95873.13;;;3.66;50.31
45937;BME280;31649;46.510;6.498;2023-04-05T07:11:01;95873.34;;;3.76;50.45
45937;BME280;31649;46.510;6.498;2023-04-05T07:13:27;95873.53;;;3.86;50.09
45937;BME280;31649;46.510;6.498;2023-04-05T07:15:59;95876.28;;;3.96;50.36
45937;BME280;31649;46.510;6.498;2023-04-05T07:18:26;95877.97;;;3.97;49.98
45937;BME280;31649;46.510;6.498;2023-04-05T07:20:51;95876.59;;;4.04;50.29
45937;BME280;31649;46.510;6.498;2023-04-05T07:23:24;95869.41;;;3.97;50.45
45937;BME280;31649;46.510;6.498;2023-04-05T07:25:50;95877.72;;;4.00;50.30
45937;BME280;31649;46.510;6.498;2023-04-05T07:28:15;95874.25;;;4.01;50.40
45937;BME280;31649;46.510;6.498;2023-04-05T07:30:41;95866.59;;;4.00;50.54
45937;BME280;31649;46.510;6.498;2023-04-05T07:33:06;95872.31;;;4.16;50.65
45937;BME280;31649;46.510;6.498;2023-04-05T07:35:32;95878.81;;;4.22;50.47
45937;BME280;31649;46.510;6.498;2023-04-05T07:37:57;95872.00;;;4.21;50.33
45937;BME280;31649;46.510;6.498;2023-04-05T07:40:23;95875.19;;;4.25;50.00
45937;BME280;31649;46.510;6.498;2023-04-05T07:42:48;95873.84;;;4.32;50.14
45937;BME280;31649;46.510;6.498;2023-04-05T07:45:14;95872.09;;;4.33;49.70
45937;BME280;31649;46.510;6.498;2023-04-05T07:47:40;95877.97;;;4.35;49.07
45937;BME280;31649;46.510;6.498;2023-04-05T07:50:06;95879.88;;;4.44;48.98
45937;BME280;31649;46.510;6.498;2023-04-05T07:52:33;95877.97;;;4.35;49.85
45937;BME280;31649;46.510;6.498;2023-04-05T07:54:59;95880.00;;;4.05;48.68
45937;BME280;31649;46.510;6.498;2023-04-05T07:57:24;95878.56;;;4.01;49.84
45937;BME280;31649;46.510;6.498;2023-04-05T07:59:52;95882.69;;;4.03;50.04
45937;BME280;31649;46.510;6.498;2023-04-05T08:02:19;95881.44;;;3.96;50.16
45937;BME280;31649;46.510;6.498;2023-04-05T08:04:44;95887.91;;;4.02;49.43
45937;BME280;31649;46.510;6.498;2023-04-05T08:07:10;95881.31;;;4.11;49.24
45937;BME280;31649;46.510;6.498;2023-04-05T08:09:36;95884.53;;;4.01;48.78
45937;BME280;31649;46.510;6.498;2023-04-05T08:12:02;95876.13;;;3.86;48.97
45937;BME280;31649;46.510;6.498;2023-04-05T08:14:28;95874.97;;;3.90;49.06
45937;BME280;31649;46.510;6.498;2023-04-05T08:16:53;95873.34;;;3.76;48.83
45937;BME280;31649;46.510;6.498;2023-04-05T08:19:19;95884.16;;;3.81;49.39
45937;BME280;31649;46.510;6.498;2023-04-05T08:21:45;95886.72;;;3.94;49.16
45937;BME280;31649;46.510;6.498;2023-04-05T08:24:10;95879.38;;;4.01;49.22
45937;BME280;31649;46.510;6.498;2023-04-05T08:26:36;95877.63;;;4.02;49.06
45937;BME280;31649;46.510;6.498;2023-04-05T08:29:01;95875.25;;;4.12;48.93
45937;BME280;31649;46.510;6.498;2023-04-05T08:31:27;95874.09;;;4.16;47.48
45937;BME280;31649;46.510;6.498;2023-04-05T08:33:52;95870.94;;;3.99;46.28
45937;BME280;31649;46.510;6.498;2023-04-05T08:36:18;95871.25;;;3.94;46.19
45937;BME280;31649;46.510;6.498;2023-04-05T08:38:43;95869.50;;;3.95;45.66
45937;BME280;31649;46.510;6.498;2023-04-05T08:41:20;95866.72;;;3.98;45.35
45937;BME280;31649;46.510;6.498;2023-04-05T08:44:00;95870.69;;;3.65;46.00
45937;BME280;31649;46.510;6.498;2023-04-05T08:46:29;95860.19;;;3.68;46.73
45937;BME280;31649;46.510;6.498;2023-04-05T08:48:56;95858.88;;;4.00;47.26
45937;BME280;31649;46.510;6.498;2023-04-05T08:51:26;95862.75;;;4.18;46.69
45937;BME280;31649;46.510;6.498;2023-04-05T08:53:52;95859.41;;;4.29;46.52
45937;BME280;31649;46.510;6.498;2023-04-05T08:56:20;95860.53;;;4.38;46.03
45937;BME280;31649;46.510;6.498;2023-04-05T08:59:19;95856.84;;;3.92;45.68
45937;BME280;31649;46.510;6.498;2023-04-05T09:01:46;95851.41;;;3.83;45.64
45937;BME280;31649;46.510;6.498;2023-04-05T09:04:17;95857.84;;;4.02;46.29
45937;BME280;31649;46.510;6.498;2023-04-05T09:06:46;95858.38;;;4.08;45.81
45937;BME280;31649;46.510;6.498;2023-04-05T09:09:12;95859.78;;;4.12;46.75
45937;BME280;31649;46.510;6.498;2023-04-05T09:11:39;95855.00;;;4.18;46.75
45937;BME280;31649;46.510;6.498;2023-04-05T09:14:05;95856.16;;;4.14;47.43
45937;BME280;31649;46.510;6.498;2023-04-05T09:16:36;95858.13;;;4.11;47.18
45937;BME280;31649;46.510;6.498;2023-04-05T09:19:02;95860.22;;;4.05;47.11
45937;BME280;31649;46.510;6.498;2023-04-05T09:21:28;95862.56;;;4.09;46.94
45937;BME280;31649;46.510;6.498;2023-04-05T09:23:54;95856.72;;;4.06;46.99
45937;BME280;31649;46.510;6.498;2023-04-05T09:26:23;95854.56;;;4.00;47.02
45937;BME280;31649;46.510;6.498;2023-04-05T09:28:49;95854.59;;;3.87;47.12
45937;BME280;31649;46.510;6.498;2023-04-05T09:31:32;95861.56;;;3.98;47.62
45937;BME280;31649;46.510;6.498;2023-04-05T09:34:02;95853.53;;;4.03;46.17
45937;BME280;31649;46.510;6.498;2023-04-05T09:36:28;95847.34;;;4.05;46.58
45937;BME280;31649;46.510;6.498;2023-04-05T09:39:06;95852.88;;;4.12;46.64
45937;BME280;31649;46.510;6.498;2023-04-05T09:41:33;95857.38;;;4.22;46.84
45937;BME280;31649;46.510;6.498;2023-04-05T09:44:00;95847.34;;;4.05;46.04
45937;BME280;31649;46.510;6.498;2023-04-05T09:46:33;95849.28;;;4.02;45.85
45937;BME280;31649;46.510;6.498;2023-04-05T09:49:02;95847.22;;;3.69;44.91
45937;BME280;31649;46.510;6.498;2023-04-05T09:51:37;95842.47;;;3.76;44.54
45937;BME280;31649;46.510;6.498;2023-04-05T09:54:05;95846.19;;;3.72;44.15
45937;BME280;31649;46.510;6.498;2023-04-05T09:56:33;95838.84;;;3.79;44.59
45937;BME280;31649;46.510;6.498;2023-04-05T09:59:12;95836.28;;;3.79;44.47
45937;BME280;31649;46.510;6.498;2023-04-05T10:01:42;95842.94;;;3.94;45.58
45937;BME280;31649;46.510;6.498;2023-04-05T10:04:08;95843.00;;;4.06;45.41
45937;BME280;31649;46.510;6.498;2023-04-05T10:09:03;95844.63;;;4.20;46.09
45937;BME280;31649;46.510;6.498;2023-04-05T10:11:29;95846.06;;;4.24;46.35
45937;BME280;31649;46.510;6.498;2023-04-05T10:13:56;95836.91;;;4.20;46.19
45937;BME280;31649;46.510;6.498;2023-04-05T10:16:25;95840.00;;;4.12;45.53
45937;BME280;31649;46.510;6.498;2023-04-05T10:18:53;95840.41;;;4.19;46.17
45937;BME280;31649;46.510;6.498;2023-04-05T10:21:22;95839.25;;;4.23;46.06
45937;BME280;31649;46.510;6.498;2023-04-05T10:27:18;95836.47;;;4.26;46.66
45937;BME280;31649;46.510;6.498;2023-04-05T10:30:02;95833.91;;;4.26;46.53
45937;BME280;31649;46.510;6.498;2023-04-05T10:35:30;95829.53;;;4.27;46.33
45937;BME280;31649;46.510;6.498;2023-04-05T10:38:11;95832.94;;;4.27;46.26
45937;BME280;31649;46.510;6.498;2023-04-05T10:40:39;95827.91;;;4.26;46.48
45937;BME280;31649;46.510;6.498;2023-04-05T10:43:15;95824.31;;;4.28;46.52
45937;BME280;31649;46.510;6.498;2023-04-05T10:45:43;95828.13;;;4.23;45.92
45937;BME280;31649;46.510;6.498;2023-04-05T10:51:00;95827.19;;;4.24;46.55
45937;BME280;31649;46.510;6.498;2023-04-05T10:53:26;95831.97;;;4.17;45.20
45937;BME280;31649;46.510;6.498;2023-04-05T10:55:54;95821.94;;;4.25;46.48
45937;BME280;31649;46.510;6.498;2023-04-05T10:58:21;95821.06;;;4.13;45.73
45937;BME280;31649;46.510;6.498;2023-04-05T11:00:49;95824.47;;;4.14;46.11
45937;BME280;31649;46.510;6.498;2023-04-05T11:06:22;95822.22;;;4.34;46.29
45937;BME280;31649;46.510;6.498;2023-04-05T11:08:50;95821.50;;;4.32;46.41
45937;BME280;31649;46.510;6.498;2023-04-05T11:11:17;95830.19;;;3.93;44.28
45937;BME280;31649;46.510;6.498;2023-04-05T11:13:56;95816.63;;;3.78;44.95
45937;BME280;31649;46.510;6.498;2023-04-05T11:16:23;95818.47;;;3.89;44.64
45937;BME280;31649;46.510;6.498;2023-04-05T11:18:50;95816.50;;;3.92;43.81
45937;BME280;31649;46.510;6.498;2023-04-05T11:21:21;95815.78;;;4.15;45.05
45937;BME280;31649;46.510;6.498;2023-04-05T11:24:10;95815.91;;;4.38;45.09
45937;BME280;31649;46.510;6.498;2023-04-05T11:29:09;95810.03;;;4.36;45.86
45937;BME280;31649;46.510;6.498;2023-04-05T11:31:36;95803.25;;;4.35;43.50
45937;BME280;31649;46.510;6.498;2023-04-05T11:34:23;95807.91;;;4.05;44.64
45937;BME280;31649;46.510;6.498;2023-04-05T11:36:48;95800.34;;;4.15;43.95
45937;BME280;31649;46.510;6.498;2023-04-05T11:41:47;95800.94;;;4.18;45.24
45937;BME280;31649;46.510;6.498;2023-04-05T11:44:17;95801.25;;;3.89;43.96
45937;BME280;31649;46.510;6.498;2023-04-05T11:46:45;95801.06;;;3.79;44.29
45937;BME280;31649;46.510;6.498;2023-04-05T11:49:12;95796.44;;;3.85;43.94
45937;BME280;31649;46.510;6.498;2023-04-05T11:51:39;95802.81;;;4.16;45.08
45937;BME280;31649;46.510;6.498;2023-04-05T11:54:07;95805.44;;;4.28;44.85
45937;BME280;31649;46.510;6.498;2023-04-05T11:56:33;95803.97;;;4.37;45.74
45937;BME280;31649;46.510;6.498;2023-04-05T11:58:59;95805.47;;;4.39;45.76
45937;BME280;31649;46.510;6.498;2023-04-05T12:01:25;95804.69;;;4.39;45.80
45937;BME280;31649;46.510;6.498;2023-04-05T12:03:54;95803.75;;;4.40;45.44
45937;BME280;31649;46.510;6.498;2023-04-05T12:06:24;95803.25;;;4.35;45.28
45937;BME280;31649;46.510;6.498;2023-04-05T12:08:52;95801.03;;;4.41;45.56
45937;BME280;31649;46.510;6.498;2023-04-05T12:11:27;95800.56;;;4.36;45.73
45937;BME280;31649;46.510;6.498;2023-04-05T12:13:56;95798.72;;;4.38;45.56
45937;BME280;31649;46.510;6.498;2023-04-05T12:16:25;95798.56;;;4.28;45.89
45937;BME280;31649;46.510;6.498;2023-04-05T12:18:58;95804.31;;;4.32;45.88
45937;BME280;31649;46.510;6.498;2023-04-05T12:21:25;95795.25;;;4.26;45.64
45937;BME280;31649;46.510;6.498;2023-04-05T12:23:52;95796.50;;;4.21;45.54
45937;BME280;31649;46.510;6.498;2023-04-05T12:26:19;95794.00;;;4.08;45.00
45937;BME280;31649;46.510;6.498;2023-04-05T12:28:58;95790.03;;;4.15;46.20
45937;BME280;31649;46.510;6.498;2023-04-05T12:31:39;95793.19;;;4.07;45.04
45937;BME280;31649;46.510;6.498;2023-04-05T12:34:06;95788.56;;;3.99;45.60
45937;BME280;31649;46.510;6.498;2023-04-05T12:36:32;95789.94;;;4.16;45.75
45937;BME280;31649;46.510;6.498;2023-04-05T12:38:58;95786.84;;;4.24;46.02
45937;BME280;31649;46.510;6.498;2023-04-05T12:41:29;95787.53;;;4.26;46.10
45937;BME280;31649;46.510;6.498;2023-04-05T12:43:55;95779.47;;;4.31;45.93
45937;BME280;31649;46.510;6.498;2023-04-05T12:46:47;95785.28;;;4.22;45.82
45937;BME280;31649;46.510;6.498;2023-04-05T12:49:17;95787.28;;;4.18;46.21
45937;BME280;31649;46.510;6.498;2023-04-05T12:51:46;95778.03;;;4.27;46.67
45937;BME280;31649;46.510;6.498;2023-04-05T12:54:13;95788.84;;;4.32;46.81
45937;BME280;31649;46.510;6.498;2023-04-05T12:56:40;95780.53;;;4.28;46.76
45937;BME280;31649;46.510;6.498;2023-04-05T12:59:06;95779.38;;;4.33;46.15
45937;BME280;31649;46.510;6.498;2023-04-05T13:01:33;95779.53;;;4.54;45.62
